Terminal Aerodrome Forecast
Issued by NWS Wilmington, OH

Current Version | Previous Version | Text Only | Print | Product List | Glossary Off
Versions: 1 2 3 4 5 6 7 8 9 10 11 12 13 14 15 16 17 18 19 20 21 22 23

000
FTUS41 KILN 271124
TAFCVG
TAF
KCVG 271124Z 2712/2818 VRB02KT P6SM BKN050
     FM271400 03006KT P6SM BKN050
     FM271900 04006KT P6SM SCT050
     FM280000 08003KT P6SM SKC
     FM281000 09003KT 5SM BR SKC
     FM281300 11006KT P6SM SKC=

USA.gov is the U.S. government's official web portal to all federal, state and local government web resources and services.